sensor_id;sensor_type;location;lat;lon;timestamp;temperature;humidity
67890;DHT22;54685;52.082;5.426;2023-03-21T00:01:49;9.50;99.90
67890;DHT22;54685;52.082;5.426;2023-03-21T00:04:16;9.40;99.90
67890;DHT22;54685;52.082;5.426;2023-03-21T00:06:43;9.40;99.90
67890;DHT22;54685;52.082;5.426;2023-03-21T00:09:10;9.40;99.90
67890;DHT22;54685;52.082;5.426;2023-03-21T00:11:37;9.50;99.90
67890;DHT22;54685;52.082;5.426;2023-03-21T00:14:04;9.40;99.90
67890;DHT22;54685;52.082;5.426;2023-03-21T00:16:34;9.40;99.90
67890;DHT22;54685;52.082;5.426;2023-03-21T00:19:02;9.40;99.90
67890;DHT22;54685;52.082;5.426;2023-03-21T00:21:32;9.40;99.90
67890;DHT22;54685;52.082;5.426;2023-03-21T00:24:23;9.40;99.90
67890;DHT22;54685;52.082;5.426;2023-03-21T00:26:51;9.30;99.90
67890;DHT22;54685;52.082;5.426;2023-03-21T00:29:17;9.40;99.90
67890;DHT22;54685;52.082;5.426;2023-03-21T00:31:45;9.40;99.90
67890;DHT22;54685;52.082;5.426;2023-03-21T00:34:12;9.40;99.90
67890;DHT22;54685;52.082;5.426;2023-03-21T00:36:43;9.30;99.90
67890;DHT22;54685;52.082;5.426;2023-03-21T00:39:10;9.40;99.90
67890;DHT22;54685;52.082;5.426;2023-03-21T00:41:37;9.30;99.90
67890;DHT22;54685;52.082;5.426;2023-03-21T00:44:10;9.30;99.90
67890;DHT22;54685;52.082;5.426;2023-03-21T00:46:39;9.30;99.90
67890;DHT22;54685;52.082;5.426;2023-03-21T00:49:20;9.40;99.90
67890;DHT22;54685;52.082;5.426;2023-03-21T00:51:47;9.30;99.90
67890;DHT22;54685;52.082;5.426;2023-03-21T00:54:17;9.30;99.90
67890;DHT22;54685;52.082;5.426;2023-03-21T00:56:44;9.30;99.90
67890;DHT22;54685;52.082;5.426;2023-03-21T00:59:11;9.30;99.90
67890;DHT22;54685;52.082;5.426;2023-03-21T01:01:38;9.30;99.90
67890;DHT22;54685;52.082;5.426;2023-03-21T01:04:06;9.30;99.90
67890;DHT22;54685;52.082;5.426;2023-03-21T01:06:37;9.30;99.90
67890;DHT22;54685;52.082;5.426;2023-03-21T01:09:14;9.30;99.90
67890;DHT22;54685;52.082;5.426;2023-03-21T01:11:42;9.30;99.90
67890;DHT22;54685;52.082;5.426;2023-03-21T01:14:11;9.30;99.90
67890;DHT22;54685;52.082;5.426;2023-03-21T01:16:48;9.30;99.90
67890;DHT22;54685;52.082;5.426;2023-03-21T01:19:16;9.30;99.90
67890;DHT22;54685;52.082;5.426;2023-03-21T01:21:52;9.30;99.90
67890;DHT22;54685;52.082;5.426;2023-03-21T01:24:18;9.30;99.90
67890;DHT22;54685;52.082;5.426;2023-03-21T01:26:45;9.30;99.90
67890;DHT22;54685;52.082;5.426;2023-03-21T01:29:12;9.30;99.90
67890;DHT22;54685;52.082;5.426;2023-03-21T01:31:39;9.30;99.90
67890;DHT22;54685;52.082;5.426;2023-03-21T01:34:06;9.30;99.90
67890;DHT22;54685;52.082;5.426;2023-03-21T01:36:33;9.30;99.90
67890;DHT22;54685;52.082;5.426;2023-03-21T01:39:04;9.30;99.90
67890;DHT22;54685;52.082;5.426;2023-03-21T01:41:40;9.30;99.90
67890;DHT22;54685;52.082;5.426;2023-03-21T01:44:25;9.30;99.90
67890;DHT22;54685;52.082;5.426;2023-03-21T01:46:53;9.30;99.90
67890;DHT22;54685;52.082;5.426;2023-03-21T01:49:46;9.30;99.90
67890;DHT22;54685;52.082;5.426;2023-03-21T01:52:21;9.20;99.90
67890;DHT22;54685;52.082;5.426;2023-03-21T01:55:06;9.20;99.90
67890;DHT22;54685;52.082;5.426;2023-03-21T01:57:46;9.20;99.90
67890;DHT22;54685;52.082;5.426;2023-03-21T02:00:35;9.20;99.90
67890;DHT22;54685;52.082;5.426;2023-03-21T02:03:17;9.20;99.90
67890;DHT22;54685;52.082;5.426;2023-03-21T02:06:11;9.20;99.90
67890;DHT22;54685;52.082;5.426;2023-03-21T02:08:44;9.20;99.90
67890;DHT22;54685;52.082;5.426;2023-03-21T02:11:14;9.20;99.90
67890;DHT22;54685;52.082;5.426;2023-03-21T02:13:42;9.20;99.90
67890;DHT22;54685;52.082;5.426;2023-03-21T02:16:33;9.20;99.90
67890;DHT22;54685;52.082;5.426;2023-03-21T02:22:44;9.20;99.90
67890;DHT22;54685;52.082;5.426;2023-03-21T02:28:23;9.20;99.90
67890;DHT22;54685;52.082;5.426;2023-03-21T02:34:36;9.10;99.90
67890;DHT22;54685;52.082;5.426;2023-03-21T02:40:13;9.10;99.90
67890;DHT22;54685;52.082;5.426;2023-03-21T02:43:03;9.10;99.90
67890;DHT22;54685;52.082;5.426;2023-03-21T02:45:59;9.10;99.90
67890;DHT22;54685;52.082;5.426;2023-03-21T02:48:40;9.10;99.90
67890;DHT22;54685;52.082;5.426;2023-03-21T02:51:19;9.10;99.90
67890;DHT22;54685;52.082;5.426;2023-03-21T02:53:57;9.20;99.90
67890;DHT22;54685;52.082;5.426;2023-03-21T02:56:46;9.20;99.90
67890;DHT22;54685;52.082;5.426;2023-03-21T02:59:16;9.20;99.90
67890;DHT22;54685;52.082;5.426;2023-03-21T03:01:45;9.20;99.90
67890;DHT22;54685;52.082;5.426;2023-03-21T03:04:20;9.20;99.90
67890;DHT22;54685;52.082;5.426;2023-03-21T03:07:14;9.20;99.90
67890;DHT22;54685;52.082;5.426;2023-03-21T03:15:26;9.20;99.90
67890;DHT22;54685;52.082;5.426;2023-03-21T03:20:29;9.20;99.90
67890;DHT22;54685;52.082;5.426;2023-03-21T03:25:51;9.20;99.90
67890;DHT22;54685;52.082;5.426;2023-03-21T03:28:25;9.20;99.90
67890;DHT22;54685;52.082;5.426;2023-03-21T03:30:55;9.20;99.90
67890;DHT22;54685;52.082;5.426;2023-03-21T03:33:53;9.20;99.90
67890;DHT22;54685;52.082;5.426;2023-03-21T03:36:25;9.20;99.90
67890;DHT22;54685;52.082;5.426;2023-03-21T03:39:04;9.10;99.90
67890;DHT22;54685;52.082;5.426;2023-03-21T03:41:43;9.20;99.90
67890;DHT22;54685;52.082;5.426;2023-03-21T03:44:35;9.20;99.90
67890;DHT22;54685;52.082;5.426;2023-03-21T03:47:37;9.20;99.90
67890;DHT22;54685;52.082;5.426;2023-03-21T03:50:16;9.20;99.90
67890;DHT22;54685;52.082;5.426;2023-03-21T03:52:49;9.10;99.90
67890;DHT22;54685;52.082;5.426;2023-03-21T03:55:25;9.10;99.90
67890;DHT22;54685;52.082;5.426;2023-03-21T03:57:58;9.20;99.90
67890;DHT22;54685;52.082;5.426;2023-03-21T04:00:24;9.20;99.90
67890;DHT22;54685;52.082;5.426;2023-03-21T04:02:56;9.20;99.90
67890;DHT22;54685;52.082;5.426;2023-03-21T04:05:25;9.10;99.90
67890;DHT22;54685;52.082;5.426;2023-03-21T04:07:52;9.10;99.90
67890;DHT22;54685;52.082;5.426;2023-03-21T04:10:28;9.10;99.90
67890;DHT22;54685;52.082;5.426;2023-03-21T04:12:54;9.20;99.90
67890;DHT22;54685;52.082;5.426;2023-03-21T04:15:40;9.10;99.90
67890;DHT22;54685;52.082;5.426;2023-03-21T04:18:12;9.10;99.90
67890;DHT22;54685;52.082;5.426;2023-03-21T04:20:39;9.10;99.90
67890;DHT22;54685;52.082;5.426;2023-03-21T04:23:07;9.10;99.90
67890;DHT22;54685;52.082;5.426;2023-03-21T04:25:34;9.10;99.90
67890;DHT22;54685;52.082;5.426;2023-03-21T04:28:06;9.10;99.90
67890;DHT22;54685;52.082;5.426;2023-03-21T04:30:46;9.10;99.90
67890;DHT22;54685;52.082;5.426;2023-03-21T04:33:31;9.10;99.90
67890;DHT22;54685;52.082;5.426;2023-03-21T04:36:07;9.10;99.90
67890;DHT22;54685;52.082;5.426;2023-03-21T04:38:35;9.10;99.90
67890;DHT22;54685;52.082;5.426;2023-03-21T04:41:03;9.10;99.90
67890;DHT22;54685;52.082;5.426;2023-03-21T04:43:30;9.10;99.90
67890;DHT22;54685;52.082;5.426;2023-03-21T04:45:57;9.10;99.90
67890;DHT22;54685;52.082;5.426;2023-03-21T04:48:24;9.10;99.90
67890;DHT22;54685;52.082;5.426;2023-03-21T04:50:51;9.10;99.90
67890;DHT22;54685;52.082;5.426;2023-03-21T04:53:18;9.10;99.90
67890;DHT22;54685;52.082;5.426;2023-03-21T04:55:45;9.10;99.90
67890;DHT22;54685;52.082;5.426;2023-03-21T04:58:12;9.10;99.90
67890;DHT22;54685;52.082;5.426;2023-03-21T05:00:38;9.00;99.90
67890;DHT22;54685;52.082;5.426;2023-03-21T05:03:06;9.00;99.90
67890;DHT22;54685;52.082;5.426;2023-03-21T05:05:36;9.10;99.90
67890;DHT22;54685;52.082;5.426;2023-03-21T05:08:04;9.00;99.90
67890;DHT22;54685;52.082;5.426;2023-03-21T05:10:32;9.00;99.90
67890;DHT22;54685;52.082;5.426;2023-03-21T05:12:58;9.00;99.90
67890;DHT22;54685;52.082;5.426;2023-03-21T05:15:26;9.00;99.90
67890;DHT22;54685;52.082;5.426;2023-03-21T05:17:53;9.00;99.90
67890;DHT22;54685;52.082;5.426;2023-03-21T05:20:21;9.00;99.90
67890;DHT22;54685;52.082;5.426;2023-03-21T05:22:47;9.00;99.90
67890;DHT22;54685;52.082;5.426;2023-03-21T05:25:17;9.00;99.90
67890;DHT22;54685;52.082;5.426;2023-03-21T05:28:07;9.00;99.90
67890;DHT22;54685;52.082;5.426;2023-03-21T05:30:34;9.00;99.90
67890;DHT22;54685;52.082;5.426;2023-03-21T05:33:02;9.00;99.90
67890;DHT22;54685;52.082;5.426;2023-03-21T05:35:32;9.00;99.90
67890;DHT22;54685;52.082;5.426;2023-03-21T05:38:03;9.00;99.90
67890;DHT22;54685;52.082;5.426;2023-03-21T05:40:36;9.00;99.90
67890;DHT22;54685;52.082;5.426;2023-03-21T05:43:03;9.00;99.90
67890;DHT22;54685;52.082;5.426;2023-03-21T05:45:30;9.00;99.90
67890;DHT22;54685;52.082;5.426;2023-03-21T05:47:57;9.00;99.90
67890;DHT22;54685;52.082;5.426;2023-03-21T05:50:29;9.00;99.90
67890;DHT22;54685;52.082;5.426;2023-03-21T05:53:13;9.00;99.90
67890;DHT22;54685;52.082;5.426;2023-03-21T05:55:40;9.10;99.90
67890;DHT22;54685;52.082;5.426;2023-03-21T05:58:12;9.10;99.90
67890;DHT22;54685;52.082;5.426;2023-03-21T06:00:44;9.10;99.90
67890;DHT22;54685;52.082;5.426;2023-03-21T06:03:19;9.10;99.90
67890;DHT22;54685;52.082;5.426;2023-03-21T06:06:16;9.10;99.90
67890;DHT22;54685;52.082;5.426;2023-03-21T06:08:54;9.10;99.90
67890;DHT22;54685;52.082;5.426;2023-03-21T06:11:30;9.10;99.90
67890;DHT22;54685;52.082;5.426;2023-03-21T06:14:17;9.10;99.90
67890;DHT22;54685;52.082;5.426;2023-03-21T06:16:53;9.10;99.90
67890;DHT22;54685;52.082;5.426;2023-03-21T06:19:21;9.10;99.90
67890;DHT22;54685;52.082;5.426;2023-03-21T06:22:01;9.10;99.90
67890;DHT22;54685;52.082;5.426;2023-03-21T06:24:30;9.10;99.90
67890;DHT22;54685;52.082;5.426;2023-03-21T06:26:57;9.10;99.90
67890;DHT22;54685;52.082;5.426;2023-03-21T06:29:30;9.10;99.90
67890;DHT22;54685;52.082;5.426;2023-03-21T06:31:57;9.10;99.90
67890;DHT22;54685;52.082;5.426;2023-03-21T06:34:24;9.10;99.90
67890;DHT22;54685;52.082;5.426;2023-03-21T06:36:51;9.10;99.90
67890;DHT22;54685;52.082;5.426;2023-03-21T06:39:25;9.10;99.90
67890;DHT22;54685;52.082;5.426;2023-03-21T06:41:52;9.10;99.90
67890;DHT22;54685;52.082;5.426;2023-03-21T06:44:19;9.10;99.90
67890;DHT22;54685;52.082;5.426;2023-03-21T06:46:55;9.10;99.90
67890;DHT22;54685;52.082;5.426;2023-03-21T06:49:22;9.10;99.90
67890;DHT22;54685;52.082;5.426;2023-03-21T06:51:49;9.10;99.90
67890;DHT22;54685;52.082;5.426;2023-03-21T06:54:18;9.10;99.90
67890;DHT22;54685;52.082;5.426;2023-03-21T06:56:59;9.20;99.90
67890;DHT22;54685;52.082;5.426;2023-03-21T06:59:29;9.20;99.90
67890;DHT22;54685;52.082;5.426;2023-03-21T07:02:00;9.20;99.90
67890;DHT22;54685;52.082;5.426;2023-03-21T07:04:27;9.20;99.90
67890;DHT22;54685;52.082;5.426;2023-03-21T07:06:56;9.20;99.90
67890;DHT22;54685;52.082;5.426;2023-03-21T07:09:22;9.20;99.90
67890;DHT22;54685;52.082;5.426;2023-03-21T07:11:56;9.20;99.90
67890;DHT22;54685;52.082;5.426;2023-03-21T07:14:29;9.20;99.90
67890;DHT22;54685;52.082;5.426;2023-03-21T07:16:57;9.20;99.90
67890;DHT22;54685;52.082;5.426;2023-03-21T07:19:24;9.30;99.90
67890;DHT22;54685;52.082;5.426;2023-03-21T07:21:53;9.30;99.90
67890;DHT22;54685;52.082;5.426;2023-03-21T07:24:20;9.30;99.90
67890;DHT22;54685;52.082;5.426;2023-03-21T07:26:46;9.30;99.90
67890;DHT22;54685;52.082;5.426;2023-03-21T07:29:13;9.30;99.90
67890;DHT22;54685;52.082;5.426;2023-03-21T07:31:40;9.30;99.90
67890;DHT22;54685;52.082;5.426;2023-03-21T07:34:07;9.30;99.90
67890;DHT22;54685;52.082;5.426;2023-03-21T07:36:34;9.30;99.90
67890;DHT22;54685;52.082;5.426;2023-03-21T07:39:03;9.40;99.90
67890;DHT22;54685;52.082;5.426;2023-03-21T07:41:30;9.30;99.90
67890;DHT22;54685;52.082;5.426;2023-03-21T07:44:09;9.30;99.90
67890;DHT22;54685;52.082;5.426;2023-03-21T07:46:35;9.40;99.90
67890;DHT22;54685;52.082;5.426;2023-03-21T07:49:02;9.40;99.90
67890;DHT22;54685;52.082;5.426;2023-03-21T07:51:29;9.50;99.90
67890;DHT22;54685;52.082;5.426;2023-03-21T07:53:56;9.50;99.90
67890;DHT22;54685;52.082;5.426;2023-03-21T07:56:22;9.50;99.90
67890;DHT22;54685;52.082;5.426;2023-03-21T07:58:49;9.50;99.90
67890;DHT22;54685;52.082;5.426;2023-03-21T08:01:16;9.50;99.90
67890;DHT22;54685;52.082;5.426;2023-03-21T08:03:43;9.50;99.90
67890;DHT22;54685;52.082;5.426;2023-03-21T08:06:10;9.50;99.90
67890;DHT22;54685;52.082;5.426;2023-03-21T08:08:37;9.50;99.90
67890;DHT22;54685;52.082;5.426;2023-03-21T08:11:04;9.50;99.90
67890;DHT22;54685;52.082;5.426;2023-03-21T08:13:31;9.50;99.90
67890;DHT22;54685;52.082;5.426;2023-03-21T08:15:58;9.50;99.90
67890;DHT22;54685;52.082;5.426;2023-03-21T08:18:25;9.60;99.90
67890;DHT22;54685;52.082;5.426;2023-03-21T08:20:53;9.60;99.90
67890;DHT22;54685;52.082;5.426;2023-03-21T08:23:20;9.60;99.90
67890;DHT22;54685;52.082;5.426;2023-03-21T08:25:51;9.60;99.90
67890;DHT22;54685;52.082;5.426;2023-03-21T08:28:19;9.60;99.90
67890;DHT22;54685;52.082;5.426;2023-03-21T08:30:47;9.60;99.90
67890;DHT22;54685;52.082;5.426;2023-03-21T08:33:14;9.60;99.90
67890;DHT22;54685;52.082;5.426;2023-03-21T08:35:42;9.60;99.90
67890;DHT22;54685;52.082;5.426;2023-03-21T08:38:09;9.60;99.90
67890;DHT22;54685;52.082;5.426;2023-03-21T08:40:36;9.70;99.90
67890;DHT22;54685;52.082;5.426;2023-03-21T08:43:03;9.70;99.90
67890;DHT22;54685;52.082;5.426;2023-03-21T08:45:30;9.70;99.90
67890;DHT22;54685;52.082;5.426;2023-03-21T08:47:57;9.70;99.90
67890;DHT22;54685;52.082;5.426;2023-03-21T08:50:25;9.80;99.90
67890;DHT22;54685;52.082;5.426;2023-03-21T08:52:55;9.80;99.90
67890;DHT22;54685;52.082;5.426;2023-03-21T08:55:21;9.80;99.90
67890;DHT22;54685;52.082;5.426;2023-03-21T08:57:48;9.90;99.90
67890;DHT22;54685;52.082;5.426;2023-03-21T09:00:17;9.90;99.90
67890;DHT22;54685;52.082;5.426;2023-03-21T09:02:47;10.00;99.90
67890;DHT22;54685;52.082;5.426;2023-03-21T09:05:15;10.00;99.90
67890;DHT22;54685;52.082;5.426;2023-03-21T09:07:42;10.00;99.90
67890;DHT22;54685;52.082;5.426;2023-03-21T09:10:14;10.10;99.90
67890;DHT22;54685;52.082;5.426;2023-03-21T09:12:51;10.10;99.90
67890;DHT22;54685;52.082;5.426;2023-03-21T09:15:19;10.10;99.90
67890;DHT22;54685;52.082;5.426;2023-03-21T09:17:48;10.10;99.90
67890;DHT22;54685;52.082;5.426;2023-03-21T09:20:19;10.10;99.90
67890;DHT22;54685;52.082;5.426;2023-03-21T09:22:49;10.10;99.90
67890;DHT22;54685;52.082;5.426;2023-03-21T09:25:18;10.10;99.90
67890;DHT22;54685;52.082;5.426;2023-03-21T09:27:46;10.10;99.90
67890;DHT22;54685;52.082;5.426;2023-03-21T09:30:15;10.10;99.90
67890;DHT22;54685;52.082;5.426;2023-03-21T09:32:43;10.10;99.90
67890;DHT22;54685;52.082;5.426;2023-03-21T09:35:17;10.10;99.90
67890;DHT22;54685;52.082;5.426;2023-03-21T09:37:45;10.20;99.90
67890;DHT22;54685;52.082;5.426;2023-03-21T09:43:31;10.20;99.90
67890;DHT22;54685;52.082;5.426;2023-03-21T09:49:23;10.30;99.90
67890;DHT22;54685;52.082;5.426;2023-03-21T09:52:02;10.40;99.90
67890;DHT22;54685;52.082;5.426;2023-03-21T09:54:39;10.40;99.90
67890;DHT22;54685;52.082;5.426;2023-03-21T09:57:27;10.40;99.90
67890;DHT22;54685;52.082;5.426;2023-03-21T09:59:57;10.50;99.90
67890;DHT22;54685;52.082;5.426;2023-03-21T10:02:42;10.50;99.90
67890;DHT22;54685;52.082;5.426;2023-03-21T10:05:22;10.60;99.90
67890;DHT22;54685;52.082;5.426;2023-03-21T10:07:57;10.60;99.90
67890;DHT22;54685;52.082;5.426;2023-03-21T10:10:31;10.60;99.90
67890;DHT22;54685;52.082;5.426;2023-03-21T10:13:00;10.60;99.90
67890;DHT22;54685;52.082;5.426;2023-03-21T10:15:27;10.70;99.90
67890;DHT22;54685;52.082;5.426;2023-03-21T10:17:58;10.70;99.90
67890;DHT22;54685;52.082;5.426;2023-03-21T10:20:35;10.80;99.90
67890;DHT22;54685;52.082;5.426;2023-03-21T10:23:05;10.90;99.90
67890;DHT22;54685;52.082;5.426;2023-03-21T10:25:40;10.90;99.90
67890;DHT22;54685;52.082;5.426;2023-03-21T10:28:15;11.00;99.90
67890;DHT22;54685;52.082;5.426;2023-03-21T10:30:52;11.00;99.90
67890;DHT22;54685;52.082;5.426;2023-03-21T10:33:23;11.00;99.90
67890;DHT22;54685;52.082;5.426;2023-03-21T10:35:53;11.10;99.90
67890;DHT22;54685;52.082;5.426;2023-03-21T10:38:24;11.10;99.90
67890;DHT22;54685;52.082;5.426;2023-03-21T10:40:52;11.10;99.90
67890;DHT22;54685;52.082;5.426;2023-03-21T10:45:55;11.10;99.90
67890;DHT22;54685;52.082;5.426;2023-03-21T10:48:23;11.20;99.90
67890;DHT22;54685;52.082;5.426;2023-03-21T10:50:53;11.20;99.90
67890;DHT22;54685;52.082;5.426;2023-03-21T10:53:26;11.30;99.90
67890;DHT22;54685;52.082;5.426;2023-03-21T10:55:58;11.40;99.90
67890;DHT22;54685;52.082;5.426;2023-03-21T10:58:28;11.50;99.90
67890;DHT22;54685;52.082;5.426;2023-03-21T11:00:58;11.60;99.90
67890;DHT22;54685;52.082;5.426;2023-03-21T11:03:35;11.60;99.90
67890;DHT22;54685;52.082;5.426;2023-03-21T11:06:13;11.60;99.90
67890;DHT22;54685;52.082;5.426;2023-03-21T11:08:46;11.70;99.90
67890;DHT22;54685;52.082;5.426;2023-03-21T11:11:25;11.70;99.90
67890;DHT22;54685;52.082;5.426;2023-03-21T11:13:57;11.80;99.90
67890;DHT22;54685;52.082;5.426;2023-03-21T11:16:37;11.80;99.90
67890;DHT22;54685;52.082;5.426;2023-03-21T11:19:18;11.90;99.90
67890;DHT22;54685;52.082;5.426;2023-03-21T11:21:45;11.90;99.90
67890;DHT22;54685;52.082;5.426;2023-03-21T11:24:17;11.90;99.90
67890;DHT22;54685;52.082;5.426;2023-03-21T11:26:47;12.00;99.90
67890;DHT22;54685;52.082;5.426;2023-03-21T11:29:37;12.10;99.90
67890;DHT22;54685;52.082;5.426;2023-03-21T11:32:11;12.30;99.90
67890;DHT22;54685;52.082;5.426;2023-03-21T11:39:54;12.70;99.90
67890;DHT22;54685;52.082;5.426;2023-03-21T11:42:28;12.80;99.90
67890;DHT22;54685;52.082;5.426;2023-03-21T11:45:41;12.70;99.90
67890;DHT22;54685;52.082;5.426;2023-03-21T11:47:50;12.70;99.90
67890;DHT22;54685;52.082;5.426;2023-03-21T11:55:45;12.80;99.90
67890;DHT22;54685;52.082;5.426;2023-03-21T12:01:45;12.80;99.90
67890;DHT22;54685;52.082;5.426;2023-03-21T12:09:40;12.50;99.90
67890;DHT22;54685;52.082;5.426;2023-03-21T12:12:40;12.50;99.90
67890;DHT22;54685;52.082;5.426;2023-03-21T12:15:21;12.50;99.90
67890;DHT22;54685;52.082;5.426;2023-03-21T12:21:12;12.40;99.90
67890;DHT22;54685;52.082;5.426;2023-03-21T12:23:41;12.40;99.90
67890;DHT22;54685;52.082;5.426;2023-03-21T12:26:24;12.50;99.90
67890;DHT22;54685;52.082;5.426;2023-03-21T12:29:10;12.60;99.90
67890;DHT22;54685;52.082;5.426;2023-03-21T12:44:19;12.90;99.90
67890;DHT22;54685;52.082;5.426;2023-03-21T12:46:54;12.90;99.90
67890;DHT22;54685;52.082;5.426;2023-03-21T12:49:48;13.10;99.90
67890;DHT22;54685;52.082;5.426;2023-03-21T12:52:38;13.40;99.90
67890;DHT22;54685;52.082;5.426;2023-03-21T12:55:17;13.70;99.90
67890;DHT22;54685;52.082;5.426;2023-03-21T12:58:03;13.90;99.90
67890;DHT22;54685;52.082;5.426;2023-03-21T13:00:39;14.10;99.90
67890;DHT22;54685;52.082;5.426;2023-03-21T13:03:28;14.50;99.90
67890;DHT22;54685;52.082;5.426;2023-03-21T13:06:07;14.90;99.90
67890;DHT22;54685;52.082;5.426;2023-03-21T13:08:42;15.20;99.90
67890;DHT22;54685;52.082;5.426;2023-03-21T13:11:18;15.40;99.90
67890;DHT22;54685;52.082;5.426;2023-03-21T13:19:21;15.10;99.90
67890;DHT22;54685;52.082;5.426;2023-03-21T13:22:24;14.90;99.90
67890;DHT22;54685;52.082;5.426;2023-03-21T13:25:06;14.70;99.90
67890;DHT22;54685;52.082;5.426;2023-03-21T13:27:36;14.60;99.90
67890;DHT22;54685;52.082;5.426;2023-03-21T13:30:18;14.60;99.90
67890;DHT22;54685;52.082;5.426;2023-03-21T13:32:48;14.90;99.90
67890;DHT22;54685;52.082;5.426;2023-03-21T13:37:56;14.90;99.90
67890;DHT22;54685;52.082;5.426;2023-03-21T13:40:34;14.70;99.90
67890;DHT22;54685;52.082;5.426;2023-03-21T13:43:03;14.60;99.90
67890;DHT22;54685;52.082;5.426;2023-03-21T13:45:51;14.60;99.90
67890;DHT22;54685;52.082;5.426;2023-03-21T13:48:44;14.70;99.90
67890;DHT22;54685;52.082;5.426;2023-03-21T13:59:12;15.00;99.90
67890;DHT22;54685;52.082;5.426;2023-03-21T14:01:40;14.90;99.90
67890;DHT22;54685;52.082;5.426;2023-03-21T14:04:19;14.70;99.90
67890;DHT22;54685;52.082;5.426;2023-03-21T14:09:28;14.40;99.90
67890;DHT22;54685;52.082;5.426;2023-03-21T14:11:58;14.20;99.90
67890;DHT22;54685;52.082;5.426;2023-03-21T14:14:37;14.20;99.90
67890;DHT22;54685;52.082;5.426;2023-03-21T14:17:26;14.20;99.90
67890;DHT22;54685;52.082;5.426;2023-03-21T14:19:57;14.20;99.90
67890;DHT22;54685;52.082;5.426;2023-03-21T14:22:25;14.10;99.90
67890;DHT22;54685;52.082;5.426;2023-03-21T14:24:59;14.00;99.90
67890;DHT22;54685;52.082;5.426;2023-03-21T14:27:30;13.90;99.90
67890;DHT22;54685;52.082;5.426;2023-03-21T14:29:58;13.80;99.90
67890;DHT22;54685;52.082;5.426;2023-03-21T14:32:28;13.70;99.90
67890;DHT22;54685;52.082;5.426;2023-03-21T14:34:58;13.70;99.90
67890;DHT22;54685;52.082;5.426;2023-03-21T14:37:45;13.70;99.90
67890;DHT22;54685;52.082;5.426;2023-03-21T14:40:26;13.80;99.90
67890;DHT22;54685;52.082;5.426;2023-03-21T14:42:54;13.80;99.90
67890;DHT22;54685;52.082;5.426;2023-03-21T14:45:24;13.80;99.90
67890;DHT22;54685;52.082;5.426;2023-03-21T14:48:18;13.90;99.90
67890;DHT22;54685;52.082;5.426;2023-03-21T14:50:53;13.80;99.90
67890;DHT22;54685;52.082;5.426;2023-03-21T14:53:32;13.70;99.90
67890;DHT22;54685;52.082;5.426;2023-03-21T14:58:29;13.60;99.90
67890;DHT22;54685;52.082;5.426;2023-03-21T15:01:00;13.60;99.90
67890;DHT22;54685;52.082;5.426;2023-03-21T15:03:28;13.60;99.90
67890;DHT22;54685;52.082;5.426;2023-03-21T15:05:56;13.60;99.90
67890;DHT22;54685;52.082;5.426;2023-03-21T15:08:26;13.70;99.90
67890;DHT22;54685;52.082;5.426;2023-03-21T15:10:59;13.70;99.90
67890;DHT22;54685;52.082;5.426;2023-03-21T15:13:44;13.70;99.90
67890;DHT22;54685;52.082;5.426;2023-03-21T15:16:12;13.70;99.90
67890;DHT22;54685;52.082;5.426;2023-03-21T15:18:43;13.60;99.90
67890;DHT22;54685;52.082;5.426;2023-03-21T15:21:23;13.60;99.90
67890;DHT22;54685;52.082;5.426;2023-03-21T15:23:55;13.50;99.90
67890;DHT22;54685;52.082;5.426;2023-03-21T15:26:25;13.50;99.90
67890;DHT22;54685;52.082;5.426;2023-03-21T15:28:57;13.60;99.90
67890;DHT22;54685;52.082;5.426;2023-03-21T15:31:33;13.60;99.90
67890;DHT22;54685;52.082;5.426;2023-03-21T15:34:02;13.60;99.90
67890;DHT22;54685;52.082;5.426;2023-03-21T15:36:42;13.60;99.90
67890;DHT22;54685;52.082;5.426;2023-03-21T15:39:14;13.60;99.90
67890;DHT22;54685;52.082;5.426;2023-03-21T15:41:41;13.50;99.90
67890;DHT22;54685;52.082;5.426;2023-03-21T15:44:21;13.50;99.90
67890;DHT22;54685;52.082;5.426;2023-03-21T15:46:52;13.50;99.90
67890;DHT22;54685;52.082;5.426;2023-03-21T15:49:23;13.50;99.90
67890;DHT22;54685;52.082;5.426;2023-03-21T15:52:06;13.50;99.90
67890;DHT22;54685;52.082;5.426;2023-03-21T15:54:48;13.40;99.90
67890;DHT22;54685;52.082;5.426;2023-03-21T15:57:22;13.40;99.90
67890;DHT22;54685;52.082;5.426;2023-03-21T15:59:53;13.40;99.90
67890;DHT22;54685;52.082;5.426;2023-03-21T16:02:23;13.40;99.90
67890;DHT22;54685;52.082;5.426;2023-03-21T16:05:02;13.40;99.90
67890;DHT22;54685;52.082;5.426;2023-03-21T16:07:44;13.30;99.90
67890;DHT22;54685;52.082;5.426;2023-03-21T16:10:33;13.30;99.90
67890;DHT22;54685;52.082;5.426;2023-03-21T16:13:03;13.30;99.90
67890;DHT22;54685;52.082;5.426;2023-03-21T16:15:31;13.20;99.90
67890;DHT22;54685;52.082;5.426;2023-03-21T16:18:04;13.20;99.90
67890;DHT22;54685;52.082;5.426;2023-03-21T16:20:38;13.20;99.90
67890;DHT22;54685;52.082;5.426;2023-03-21T16:23:11;13.10;99.90
67890;DHT22;54685;52.082;5.426;2023-03-21T16:25:39;13.10;99.90
67890;DHT22;54685;52.082;5.426;2023-03-21T16:28:12;13.00;99.90
67890;DHT22;54685;52.082;5.426;2023-03-21T16:30:39;12.90;99.90
67890;DHT22;54685;52.082;5.426;2023-03-21T16:33:09;12.80;99.90
67890;DHT22;54685;52.082;5.426;2023-03-21T16:35:37;12.70;99.90
67890;DHT22;54685;52.082;5.426;2023-03-21T16:38:04;12.60;99.90
67890;DHT22;54685;52.082;5.426;2023-03-21T16:40:37;12.50;99.90
67890;DHT22;54685;52.082;5.426;2023-03-21T16:43:06;12.40;99.90
67890;DHT22;54685;52.082;5.426;2023-03-21T16:45:33;12.30;99.90
67890;DHT22;54685;52.082;5.426;2023-03-21T16:47:59;12.20;99.90
67890;DHT22;54685;52.082;5.426;2023-03-21T16:50:38;12.10;99.90
67890;DHT22;54685;52.082;5.426;2023-03-21T16:53:07;12.10;99.90
67890;DHT22;54685;52.082;5.426;2023-03-21T16:55:35;12.10;99.90
67890;DHT22;54685;52.082;5.426;2023-03-21T16:58:02;12.00;99.90
67890;DHT22;54685;52.082;5.426;2023-03-21T17:00:30;12.00;99.90
67890;DHT22;54685;52.082;5.426;2023-03-21T17:03:00;12.00;99.90
67890;DHT22;54685;52.082;5.426;2023-03-21T17:05:28;12.00;99.90
67890;DHT22;54685;52.082;5.426;2023-03-21T17:07:58;12.00;99.90
67890;DHT22;54685;52.082;5.426;2023-03-21T17:10:29;11.90;99.90
67890;DHT22;54685;52.082;5.426;2023-03-21T17:12:56;12.00;99.90
67890;DHT22;54685;52.082;5.426;2023-03-21T17:15:23;12.00;99.90
67890;DHT22;54685;52.082;5.426;2023-03-21T17:17:50;12.00;99.90
67890;DHT22;54685;52.082;5.426;2023-03-21T17:20:23;11.90;99.90
67890;DHT22;54685;52.082;5.426;2023-03-21T17:22:51;11.90;99.90
67890;DHT22;54685;52.082;5.426;2023-03-21T17:25:18;11.90;99.90
67890;DHT22;54685;52.082;5.426;2023-03-21T17:27:46;11.90;99.90
67890;DHT22;54685;52.082;5.426;2023-03-21T17:30:23;11.80;99.90
67890;DHT22;54685;52.082;5.426;2023-03-21T17:32:51;11.80;99.90
67890;DHT22;54685;52.082;5.426;2023-03-21T17:35:19;11.70;99.90
67890;DHT22;54685;52.082;5.426;2023-03-21T17:37:46;11.70;99.90
67890;DHT22;54685;52.082;5.426;2023-03-21T17:40:22;11.70;99.90
67890;DHT22;54685;52.082;5.426;2023-03-21T17:42:50;11.60;99.90
67890;DHT22;54685;52.082;5.426;2023-03-21T17:45:18;11.60;99.90